»·PEaware :: N6PC KASE-KAPA

N6PC :: KASE-KAPA

FLIGHT INFORMATION

Flight Status: Arrived
Operator: Privately registered:
United States
More flights under this callsign
Pilot: Skye D. (10623)
Aircraft: GULFSTREAM G-1159C GULFSTREAM 4
(GLF4)
More flights by this aircraft type
Origin: KASE Aspen-Pitkin Co/Sardy
United States
Destination: KAPA Centennial
United States
More flights between these airports :: More routes between these airports
Route: +LINDZ8 DBL JNETT MURFE LARKS LARKS8 / CABOB ZOMBZ1
File this flight plan on PilotEdge
Remarks:
Altitude:
(Current/Filed)
27,000ft
Speed:
(Current/Filed)
491kts
Departed: 22-Feb-18 11:56 AM
Arrived: 22-Feb-18 12:26 PM
Distance/Time
Traveled:
96nm/0:30
Distance/Time
To Go:
Arrived

Flight Plot

Page will automatically refresh every two minutes.

Flight plan parsing failed; only flown route is shown


Map Options




Map Legend


Flown Route
Filed Route
Departure Airport
Arrival Airport
Navaid (VOR, NDB)
Fix

Horizontal Profiles

Position Reports

Time Latitude Longitude Heading Altitude Ground
Speed
22-Feb-18 11:34 39.222543 -106.865843 247 7827ft 0kts
22-Feb-18 11:35 39.222543 -106.865843 247 7827ft 0kts
22-Feb-18 11:36 39.222543 -106.865843 247 7827ft 0kts
22-Feb-18 11:37 39.222543 -106.865843 247 7827ft 0kts
22-Feb-18 11:38 39.222543 -106.865843 247 7827ft 0kts
22-Feb-18 11:39 39.222543 -106.865843 247 7827ft 0kts
22-Feb-18 11:40 39.222543 -106.865843 247 7827ft 0kts
22-Feb-18 11:41 39.222543 -106.865843 247 7827ft 0kts
22-Feb-18 11:42 39.222543 -106.865843 247 7827ft 0kts
22-Feb-18 11:43 39.222543 -106.865843 247 7827ft 0kts
22-Feb-18 11:44 39.222543 -106.865843 247 7827ft 0kts
22-Feb-18 11:45 39.222543 -106.865843 247 7827ft 0kts
22-Feb-18 11:46 39.222543 -106.865843 247 7827ft 0kts
22-Feb-18 11:47 39.222543 -106.865843 247 7827ft 0kts
22-Feb-18 11:48 39.222543 -106.865843 247 7827ft 0kts
22-Feb-18 11:49 39.222543 -106.865843 247 7827ft 0kts
22-Feb-18 11:50 39.222543 -106.865843 247 7827ft 0kts
22-Feb-18 11:51 39.222543 -106.865843 247 7827ft 0kts
22-Feb-18 11:52 39.222543 -106.865843 247 7827ft 0kts
22-Feb-18 11:53 39.222543 -106.865843 247 7827ft 0kts
22-Feb-18 11:54 39.222543 -106.865843 247 7827ft 0kts
22-Feb-18 11:55 39.222543 -106.865843 247 7827ft 0kts
22-Feb-18 11:56 39.222543 -106.865843 247 7827ft 0kts
22-Feb-18 11:57 39.222461 -106.866573 255 7827ft 0kts
22-Feb-18 11:58 39.222438 -106.866685 254 7827ft 4kts
22-Feb-18 11:59 39.219095 -106.865436 159 7827ft 17kts
22-Feb-18 12:00 39.215530 -106.863795 158 7827ft 13kts
22-Feb-18 12:01 39.212526 -106.862510 222 7827ft 0kts
22-Feb-18 12:02 39.212537 -106.863586 337 7827ft 0kts
22-Feb-18 12:03 39.231662 -106.874064 332 8822ft 158kts
22-Feb-18 12:04 39.250668 -106.938801 279 10938ft 285kts
22-Feb-18 12:05 39.296307 -107.027894 324 15751ft 284kts
22-Feb-18 12:06 39.364104 -107.037145 354 17631ft 249kts
22-Feb-18 12:07 39.405020 -106.984605 108 18824ft 251kts
22-Feb-18 12:08 39.382869 -106.916007 113 20364ft 280kts
22-Feb-18 12:09 39.371244 -106.813556 100 21375ft 370kts
22-Feb-18 12:10 39.362971 -106.671053 98 22856ft 451kts
22-Feb-18 12:11 39.354084 -106.512432 98 25884ft 476kts
22-Feb-18 12:12 39.327803 -106.365640 113 26857ft 473kts
22-Feb-18 12:13 39.269416 -106.239798 122 26861ft 467kts
22-Feb-18 12:14 39.218212 -106.097478 122 26809ft 474kts
22-Feb-18 12:15 39.165599 -105.949394 121 24999ft 460kts
22-Feb-18 12:16 39.116474 -105.811829 118 22812ft 440kts
22-Feb-18 12:17 39.066982 -105.673386 120 20099ft 422kts
22-Feb-18 12:18 39.020154 -105.543349 119 17159ft 399kts
22-Feb-18 12:19 39.010113 -105.431849 64 16372ft 348kts
22-Feb-18 12:20 39.069508 -105.340393 44 14948ft 335kts
22-Feb-18 12:21 39.136507 -105.257511 43 14887ft 336kts
22-Feb-18 12:22 39.186827 -105.160680 87 14861ft 337kts
22-Feb-18 12:23 39.187830 -105.043420 105 13340ft 321kts
22-Feb-18 12:24 39.176370 -104.936432 69 11993ft 270kts
22-Feb-18 12:25 39.203443 -104.851069 41 11026ft 246kts
22-Feb-18 12:26 39.268505 -104.838567 358 9151ft 238kts
22-Feb-18 12:27 39.333044 -104.840065 357 8973ft 234kts
22-Feb-18 12:28 39.397278 -104.842908 357 8957ft 209kts
22-Feb-18 12:29 39.447325 -104.845201 357 8179ft 169kts
22-Feb-18 12:30 39.487838 -104.847056 358 7333ft 141kts
22-Feb-18 12:31 39.525933 -104.849126 0 6550ft 132kts
22-Feb-18 12:32 39.560776 -104.850451 358 5890ft 114kts
22-Feb-18 12:33 39.571488 -104.850811 2 5890ft 11kts
22-Feb-18 12:34 39.574260 -104.849582 353 5890ft 9kts
22-Feb-18 12:35 39.577443 -104.848992 78 5890ft 9kts
22-Feb-18 12:36 39.577906 -104.848300 355 5890ft 0kts
22-Feb-18 12:37 39.577906 -104.848300 355 5890ft 0kts

Navigation Log

Ident Type
Flight plan parsing failed, navigation log unavailable